Time;durP1;ratioP1;P1;durP2;ratioP2;P2;SDS_P1;SDS_P2;PMS_P1;PMS_P2;Temp;Humidity;BMP_temperature;BMP_pressure;BME280_temperature;BME280_humidity;BME280_pressure;Samples;Min_cycle;Max_cycle;Signal;HPM_P1;HPM_P2
2020/12/29 00:01:40;;;;;;;5.30;1.45;;;;;;;3.98;83.38;98057.03;4953870;28;20452;-52
2020/12/29 00:04:08;;;;;;;10.43;1.80;;;;;;;3.97;83.76;98049.97;4946513;28;20050;-57
2020/12/29 00:06:43;;;;;;;3.13;1.80;;;;;;;3.97;83.79;98063.66;4954938;29;20047;-57
2020/12/29 00:09:11;;;;;;;10.25;2.20;;;;;;;3.98;83.45;98061.72;4954895;28;20038;-56
2020/12/29 00:11:38;;;;;;;6.22;1.83;;;;;;;3.98;83.89;98062.53;4953972;28;20040;-58
2020/12/29 00:14:06;;;;;;;8.23;1.40;;;;;;;3.99;83.80;98058.63;4978750;28;20074;-57
2020/12/29 00:16:33;;;;;;;7.40;1.85;;;;;;;3.97;83.67;98060.16;4983458;28;20045;-52
2020/12/29 00:19:00;;;;;;;8.73;2.70;;;;;;;3.97;83.86;98060.94;4962606;28;20054;-55
2020/12/29 00:21:28;;;;;;;9.00;2.00;;;;;;;3.97;83.71;98076.59;4979073;28;20134;-55
2020/12/29 00:23:56;;;;;;;8.55;1.73;;;;;;;3.99;83.42;98068.78;4974645;28;20049;-54
2020/12/29 00:26:26;;;;;;;7.32;1.58;;;;;;;3.99;83.49;98075.06;4974074;28;20520;-57
2020/12/29 00:28:53;;;;;;;3.83;1.50;;;;;;;4.00;83.68;98086.78;4967744;28;20041;-56
2020/12/29 00:31:20;;;;;;;7.63;1.70;;;;;;;3.98;83.41;98095.38;4967286;28;20464;-57
2020/12/29 00:33:48;;;;;;;14.32;3.72;;;;;;;3.97;83.60;98093.78;4986658;28;20097;-55
2020/12/29 00:36:16;;;;;;;9.10;1.60;;;;;;;3.96;83.62;98088.69;4990722;28;20074;-55
2020/12/29 00:38:44;;;;;;;11.57;1.65;;;;;;;3.96;83.76;98096.88;4976833;28;20374;-55
2020/12/29 00:41:11;;;;;;;9.15;1.50;;;;;;;3.95;84.06;98096.09;4973783;28;20043;-55
2020/12/29 00:43:39;;;;;;;9.57;2.53;;;;;;;3.93;84.33;98089.41;4973999;28;20077;-57
2020/12/29 00:46:14;;;;;;;6.38;1.73;;;;;;;3.87;84.37;98072.50;4974022;28;20046;-56
2020/12/29 00:48:41;;;;;;;10.52;2.88;;;;;;;3.89;84.43;98081.13;4973329;28;20081;-56
2020/12/29 00:51:16;;;;;;;9.32;2.75;;;;;;;3.86;84.39;98073.66;4974455;28;20047;-55
2020/12/29 00:53:42;;;;;;;12.25;2.55;;;;;;;3.85;84.38;98065.81;4973963;28;20117;-55
2020/12/29 00:56:10;;;;;;;7.20;1.70;;;;;;;3.80;84.48;98066.91;4973819;28;20508;-51
2020/12/29 00:58:37;;;;;;;13.52;2.40;;;;;;;3.80;84.53;98072.38;4973130;28;20145;-52
2020/12/29 01:01:06;;;;;;;13.02;2.30;;;;;;;3.81;84.47;98079.47;4973569;28;20038;-54
2020/12/29 01:03:39;;;;;;;11.95;2.03;;;;;;;3.84;84.24;98088.88;4972480;28;20051;-56
2020/12/29 01:06:09;;;;;;;13.50;2.10;;;;;;;3.85;84.55;98104.91;4957584;28;20137;-54
2020/12/29 01:08:36;;;;;;;6.63;2.10;;;;;;;3.85;84.65;98115.88;4973530;28;20027;-54
2020/12/29 01:11:02;;;;;;;9.23;1.75;;;;;;;3.86;84.77;98131.16;4973401;28;20105;-55
2020/12/29 01:13:28;;;;;;;8.05;2.20;;;;;;;3.86;84.88;98122.94;4973356;28;20086;-54
2020/12/29 01:15:55;;;;;;;7.45;1.80;;;;;;;3.85;84.86;98134.22;4974274;28;20137;-53
2020/12/29 01:18:21;;;;;;;15.20;2.67;;;;;;;3.85;84.52;98124.06;4973233;28;20102;-58
2020/12/29 01:20:49;;;;;;;11.68;2.15;;;;;;;3.88;84.37;98139.78;4973360;28;20133;-55
2020/12/29 01:23:16;;;;;;;9.93;2.58;;;;;;;3.89;84.53;98146.81;4961836;28;20440;-52
2020/12/29 01:25:43;;;;;;;2.53;1.23;;;;;;;3.88;84.56;98150.72;4973500;28;20063;-54
2020/12/29 01:28:09;;;;;;;4.05;1.20;;;;;;;3.89;84.24;98146.81;4978087;28;20129;-55
2020/12/29 01:30:37;;;;;;;3.70;1.40;;;;;;;3.91;84.39;98149.19;4977012;28;20043;-54
2020/12/29 01:33:06;;;;;;;5.03;1.10;;;;;;;3.89;84.38;98146.03;4977231;28;20066;-54
2020/12/29 01:35:32;;;;;;;4.07;0.93;;;;;;;3.87;84.45;98146.38;4977348;28;20078;-59
2020/12/29 01:37:59;;;;;;;6.60;1.38;;;;;;;3.86;84.09;98144.03;4977169;28;20137;-55
2020/12/29 01:40:25;;;;;;;5.47;1.02;;;;;;;3.82;84.10;98143.97;4977020;28;20511;-54
2020/12/29 01:42:57;;;;;;;6.75;0.90;;;;;;;3.79;83.93;98136.47;4977021;28;20043;-55
2020/12/29 01:45:24;;;;;;;5.93;2.03;;;;;;;3.75;84.21;98135.63;4977498;28;20039;-54
2020/12/29 01:47:52;;;;;;;6.20;1.30;;;;;;;3.73;84.12;98150.84;4977658;28;20102;-54
2020/12/29 01:50:23;;;;;;;7.70;1.10;;;;;;;3.68;84.20;98151.91;4977508;28;20042;-56
2020/12/29 01:53:01;;;;;;;7.10;1.30;;;;;;;3.65;83.85;98141.72;4976394;28;20078;-56
2020/12/29 01:55:29;;;;;;;5.10;1.23;;;;;;;3.62;83.74;98148.69;4959805;28;20057;-56
2020/12/29 01:57:59;;;;;;;5.53;1.83;;;;;;;3.59;84.34;98163.09;4943820;28;20126;-56
2020/12/29 02:00:26;;;;;;;6.03;1.00;;;;;;;3.59;83.96;98173.25;4977115;28;20066;-56
2020/12/29 02:02:52;;;;;;;3.55;1.63;;;;;;;3.58;84.14;98177.13;4976722;28;20370;-56
2020/12/29 02:05:28;;;;;;;5.25;1.42;;;;;;;3.57;84.22;98189.22;4976838;28;20386;-57
2020/12/29 02:07:56;;;;;;;2.25;1.00;;;;;;;3.57;84.17;98186.50;4976395;28;20133;-56
2020/12/29 02:10:23;;;;;;;2.05;0.90;;;;;;;3.59;83.95;98192.38;4976841;28;20066;-56
2020/12/29 02:12:49;;;;;;;6.78;2.13;;;;;;;3.60;84.01;98199.44;4976504;28;20098;-53
2020/12/29 02:15:18;;;;;;;8.80;2.80;;;;;;;3.59;84.09;98204.13;4976073;28;20045;-52
2020/12/29 02:17:44;;;;;;;6.35;1.52;;;;;;;3.62;84.23;98208.09;4976398;28;20084;-54
2020/12/29 02:20:11;;;;;;;6.55;1.08;;;;;;;3.63;84.27;98210.44;4976537;28;20074;-55
2020/12/29 02:22:37;;;;;;;2.92;1.05;;;;;;;3.65;84.13;98229.25;4976757;28;20042;-54
2020/12/29 02:25:06;;;;;;;3.47;0.88;;;;;;;3.65;84.03;98224.53;4957522;28;20106;-55
2020/12/29 02:27:42;;;;;;;4.13;1.10;;;;;;;3.62;83.99;98229.97;4956005;28;20079;-55
2020/12/29 02:30:09;;;;;;;2.58;0.80;;;;;;;3.58;83.66;98218.16;4961935;28;20046;-55
2020/12/29 02:32:37;;;;;;;3.03;0.98;;;;;;;3.54;83.76;98239.19;4964765;28;20047;-57
2020/12/29 02:35:04;;;;;;;4.03;1.20;;;;;;;3.51;83.75;98245.38;4968003;28;20074;-56
2020/12/29 02:37:33;;;;;;;5.32;1.33;;;;;;;3.46;83.42;98251.94;4975606;28;20039;-54
2020/12/29 02:40:00;;;;;;;2.28;1.15;;;;;;;3.41;83.48;98246.75;4976145;28;20097;-54
2020/12/29 02:42:26;;;;;;;2.55;1.40;;;;;;;3.38;83.86;98255.66;4975835;28;20074;-51
2020/12/29 02:44:52;;;;;;;2.88;1.40;;;;;;;3.34;83.88;98256.72;4975549;28;20438;-51
2020/12/29 02:47:19;;;;;;;4.50;1.05;;;;;;;3.31;83.68;98258.22;4976393;28;20089;-54
2020/12/29 02:49:45;;;;;;;3.95;1.83;;;;;;;3.28;83.54;98271.84;4976360;28;20046;-54
2020/12/29 02:52:11;;;;;;;2.97;1.73;;;;;;;3.23;83.53;98266.66;4975828;28;20081;-53
2020/12/29 02:54:38;;;;;;;1.65;1.05;;;;;;;3.20;83.60;98278.28;4976014;28;20046;-54
2020/12/29 02:57:05;;;;;;;2.67;0.90;;;;;;;3.18;83.68;98286.06;4975480;28;20417;-54
2020/12/29 02:59:31;;;;;;;2.53;1.15;;;;;;;3.16;83.66;98293.81;4975289;28;20437;-54
2020/12/29 03:01:58;;;;;;;3.10;1.38;;;;;;;3.12;83.53;98288.28;4975998;28;20121;-53
2020/12/29 03:04:24;;;;;;;8.75;1.60;;;;;;;3.08;83.77;98290.91;4974509;28;20563;-55
2020/12/29 03:06:50;;;;;;;1.50;1.17;;;;;;;3.07;83.46;98308.47;4975479;28;20074;-54
2020/12/29 03:09:17;;;;;;;1.73;1.25;;;;;;;3.07;83.43;98305.72;4975771;28;20043;-55
2020/12/29 03:11:44;;;;;;;2.95;1.52;;;;;;;3.05;83.58;98316.22;4957992;28;20576;-52
2020/12/29 03:14:11;;;;;;;3.90;1.27;;;;;;;3.04;83.72;98325.56;4975798;28;20047;-50
2020/12/29 03:16:37;;;;;;;2.92;0.90;;;;;;;3.01;83.44;98326.28;4975327;28;20047;-55
2020/12/29 03:19:20;;;;;;;;;;;;;;;2.94;83.48;98337.03;4976135;28;20042;-54
2020/12/29 03:21:46;;;;;;;2.60;0.90;;;;;;;2.93;83.56;98340.13;4974402;28;19969;-54
2020/12/29 03:24:13;;;;;;;1.42;1.00;;;;;;;2.89;83.38;98345.50;4975446;28;20046;-53
2020/12/29 03:26:39;;;;;;;1.88;1.35;;;;;;;2.88;83.61;98345.88;4975525;28;20097;-52
2020/12/29 03:29:06;;;;;;;1.73;0.98;;;;;;;2.84;83.46;98344.97;4975679;28;20043;-52
2020/12/29 03:31:34;;;;;;;1.67;0.95;;;;;;;2.81;83.53;98343.75;4974681;28;20465;-53
2020/12/29 03:34:01;;;;;;;5.72;0.93;;;;;;;2.77;83.39;98347.53;4975485;28;20085;-54
2020/12/29 03:36:27;;;;;;;2.15;1.13;;;;;;;2.74;83.45;98354.50;4974254;28;20097;-56
2020/12/29 03:38:53;;;;;;;5.00;0.60;;;;;;;2.70;83.83;98342.66;4975198;28;20047;-56
2020/12/29 03:41:20;;;;;;;4.15;1.38;;;;;;;2.70;83.36;98352.81;4969397;28;20134;-55
2020/12/29 03:43:46;;;;;;;3.70;0.70;;;;;;;2.68;83.49;98347.69;4974816;28;20086;-57
2020/12/29 03:46:13;;;;;;;4.13;0.90;;;;;;;2.66;83.42;98357.38;4975231;28;20035;-56
2020/12/29 03:48:39;;;;;;;6.35;0.85;;;;;;;2.63;83.40;98358.09;4973968;28;20058;-57
2020/12/29 03:51:06;;;;;;;3.13;0.93;;;;;;;2.61;83.22;98366.66;4974651;28;20070;-54
2020/12/29 03:53:32;;;;;;;2.10;0.88;;;;;;;2.60;83.52;98365.03;4975328;28;20050;-54
2020/12/29 03:55:58;;;;;;;2.33;0.70;;;;;;;2.56;83.29;98355.19;4973445;28;20110;-56
2020/12/29 03:58:25;;;;;;;3.40;1.00;;;;;;;2.55;83.23;98370.78;4971414;28;20066;-54
2020/12/29 04:00:51;;;;;;;2.05;0.50;;;;;;;2.53;83.03;98375.78;4975113;28;20412;-55
2020/12/29 04:03:17;;;;;;;7.63;1.65;;;;;;;2.52;83.55;98385.13;4974050;28;20070;-56
2020/12/29 04:05:47;;;;;;;2.17;0.65;;;;;;;2.50;83.41;98390.16;4974718;28;20051;-50
2020/12/29 04:08:13;;;;;;;2.63;1.10;;;;;;;2.44;83.58;98386.06;4973716;28;20097;-55
2020/12/29 04:10:39;;;;;;;1.13;1.08;;;;;;;2.41;83.45;98389.50;4974420;28;20564;-54
2020/12/29 04:13:08;;;;;;;1.88;0.70;;;;;;;2.39;83.52;98391.78;4974955;28;20465;-55
2020/12/29 04:15:35;;;;;;;7.93;1.60;;;;;;;2.38;83.44;98403.88;4974958;28;20039;-52
2020/12/29 04:18:01;;;;;;;3.60;0.85;;;;;;;2.36;83.18;98412.38;4973875;28;20070;-54
2020/12/29 04:20:28;;;;;;;3.03;0.90;;;;;;;2.34;83.27;98428.34;4974067;28;20042;-53
2020/12/29 04:22:55;;;;;;;2.78;0.93;;;;;;;2.34;83.54;98422.06;4974524;28;20062;-53
2020/12/29 04:25:21;;;;;;;4.30;1.02;;;;;;;2.34;83.18;98427.53;4974270;28;20519;-56
2020/12/29 04:27:47;;;;;;;11.52;1.30;;;;;;;2.31;83.47;98428.22;4973989;28;20078;-54
2020/12/29 04:30:14;;;;;;;1.63;0.68;;;;;;;2.31;83.44;98434.47;4973941;28;20110;-56
2020/12/29 04:32:40;;;;;;;2.55;1.50;;;;;;;2.29;83.74;98439.50;4974262;28;20051;-54
2020/12/29 04:35:07;;;;;;;5.72;1.20;;;;;;;2.29;83.33;98431.31;4954474;28;20119;-54
2020/12/29 04:37:35;;;;;;;10.38;1.40;;;;;;;2.28;83.55;98423.44;4969854;28;20399;-53
2020/12/29 04:40:05;;;;;;;18.85;5.57;;;;;;;2.28;83.48;98435.16;4973767;28;20081;-55
2020/12/29 04:42:36;;;;;;;1.83;1.05;;;;;;;2.29;83.35;98446.88;4974242;28;20043;-56
2020/12/29 04:45:05;;;;;;;9.52;3.22;;;;;;;2.25;83.63;98446.78;4974414;28;20089;-56
2020/12/29 04:47:32;;;;;;;3.22;0.88;;;;;;;2.24;83.72;98450.66;4974338;28;20062;-57
2020/12/29 04:49:59;;;;;;;5.47;1.02;;;;;;;2.24;83.54;98447.13;4973808;28;20089;-52
2020/12/29 04:52:26;;;;;;;2.50;1.30;;;;;;;2.24;83.23;98455.31;4974203;28;20070;-55
2020/12/29 04:54:54;;;;;;;6.38;2.00;;;;;;;2.27;83.26;98460.09;4974359;28;20504;-56
2020/12/29 04:57:23;;;;;;;2.75;0.90;;;;;;;2.29;83.50;98471.47;4972760;28;20047;-51
2020/12/29 04:59:53;;;;;;;6.55;1.30;;;;;;;2.33;83.49;98472.38;4974427;28;20043;-57
2020/12/29 05:02:25;;;;;;;2.47;1.00;;;;;;;2.34;83.34;98476.69;4977349;28;20536;-55
2020/12/29 05:04:54;;;;;;;4.60;1.30;;;;;;;2.36;83.79;98477.91;4977652;28;20061;-57
2020/12/29 05:07:20;;;;;;;10.38;2.30;;;;;;;2.41;83.88;98476.88;4977877;28;20508;-52
2020/12/29 05:09:47;;;;;;;4.22;1.10;;;;;;;2.45;83.88;98477.78;4960693;28;20404;-53
2020/12/29 05:12:16;;;;;;;3.30;1.25;;;;;;;2.50;84.45;98484.94;4977961;28;20043;-55
2020/12/29 05:14:48;;;;;;;3.78;1.20;;;;;;;2.54;84.33;98480.38;4977398;28;20042;-54
2020/12/29 05:17:15;;;;;;;6.07;1.27;;;;;;;2.57;84.04;98501.53;4958116;28;20047;-54
2020/12/29 05:19:42;;;;;;;4.72;1.75;;;;;;;2.57;84.35;98502.31;4960764;28;20099;-56
2020/12/29 05:22:09;;;;;;;5.75;1.13;;;;;;;2.58;84.32;98492.97;4960363;28;20415;-56
2020/12/29 05:24:54;;;;;;;13.77;1.67;;;;;;;2.58;84.24;98492.19;4959144;28;20452;-54
2020/12/29 05:27:21;;;;;;;4.25;2.35;;;;;;;2.57;84.37;98502.31;4977132;28;20039;-55
2020/12/29 05:29:47;;;;;;;6.07;1.25;;;;;;;2.60;84.21;98504.34;4981093;28;20489;-56
2020/12/29 05:32:17;;;;;;;6.85;1.50;;;;;;;2.60;84.81;98504.34;4976261;28;20050;-53
2020/12/29 05:34:45;;;;;;;4.00;1.48;;;;;;;2.61;84.56;98508.69;4977308;28;20101;-56
2020/12/29 05:37:17;;;;;;;7.35;1.40;;;;;;;2.61;84.43;98525.06;4977191;28;20456;-56
2020/12/29 05:39:43;;;;;;;6.05;1.13;;;;;;;2.63;84.99;98525.50;4977391;28;20043;-53
2020/12/29 05:42:09;;;;;;;3.10;1.20;;;;;;;2.65;84.46;98523.22;4977345;28;20443;-56
2020/12/29 05:44:36;;;;;;;4.47;1.70;;;;;;;2.67;84.81;98518.22;4977182;28;20089;-53
2020/12/29 05:47:04;;;;;;;6.90;1.58;;;;;;;2.66;84.61;98527.56;4976760;28;20045;-56
2020/12/29 05:49:31;;;;;;;8.77;1.35;;;;;;;2.67;84.65;98523.69;4958336;29;20079;-52
2020/12/29 05:51:58;;;;;;;7.80;1.27;;;;;;;2.68;84.69;98530.72;4973843;28;20074;-55
2020/12/29 05:54:27;;;;;;;5.75;1.30;;;;;;;2.69;84.64;98528.78;4976835;28;20046;-55
2020/12/29 05:56:54;;;;;;;3.97;0.90;;;;;;;2.67;85.10;98534.63;4976114;28;20070;-52
2020/12/29 05:59:21;;;;;;;7.43;1.08;;;;;;;2.68;84.97;98547.13;4977112;28;20206;-56
2020/12/29 06:01:52;;;;;;;3.33;1.00;;;;;;;2.68;84.92;98541.66;4976479;28;20050;-54
2020/12/29 06:04:20;;;;;;;8.48;1.48;;;;;;;2.68;84.92;98538.13;4976954;28;20042;-53
2020/12/29 06:06:48;;;;;;;8.98;0.98;;;;;;;2.68;84.77;98552.56;4976459;28;20045;-54
2020/12/29 06:09:18;;;;;;;3.42;1.48;;;;;;;2.68;84.75;98557.25;4976836;28;20073;-62
2020/12/29 06:11:47;;;;;;;2.20;0.88;;;;;;;2.70;85.11;98552.25;4975581;28;20052;-53
2020/12/29 06:14:16;;;;;;;5.50;1.65;;;;;;;2.71;84.91;98546.44;4977133;28;20111;-50
2020/12/29 06:16:43;;;;;;;8.52;1.38;;;;;;;2.69;84.83;98558.84;4976318;28;20042;-50
2020/12/29 06:19:28;;;;;;;8.73;2.25;;;;;;;2.66;84.59;98554.06;4976827;28;20050;-51
2020/12/29 06:22:04;;;;;;;2.22;1.15;;;;;;;2.63;84.57;98566.47;4975584;28;20034;-52
2020/12/29 06:24:33;;;;;;;7.30;1.45;;;;;;;2.62;84.67;98572.31;4976286;28;20055;-54
2020/12/29 06:27:01;;;;;;;7.35;0.85;;;;;;;2.58;84.91;98580.38;4975793;28;20042;-50
2020/12/29 06:29:42;;;;;;;1.73;0.60;;;;;;;2.57;84.88;98589.72;4976157;28;20405;-50
2020/12/29 06:32:12;;;;;;;2.72;0.93;;;;;;;2.60;85.02;98593.69;4975775;28;20762;-50
2020/12/29 06:34:40;;;;;;;10.60;1.30;;;;;;;2.63;84.92;98593.81;4976057;28;20077;-52
2020/12/29 06:37:35;;;;;;;4.90;1.60;;;;;;;2.64;85.25;98589.94;4962864;28;20039;-55
2020/12/29 06:40:05;;;;;;;1.98;0.93;;;;;;;2.67;84.60;98607.56;4958482;28;20051;-54
2020/12/29 06:42:33;;;;;;;2.95;1.30;;;;;;;2.68;84.98;98604.47;4975572;28;20047;-55
2020/12/29 06:45:06;;;;;;;5.25;1.15;;;;;;;2.68;84.97;98609.94;4976282;28;20050;-53
2020/12/29 06:47:36;;;;;;;3.55;0.90;;;;;;;2.69;84.81;98630.69;4975835;28;20038;-55
2020/12/29 06:50:26;;;;;;;3.03;0.80;;;;;;;2.68;84.87;98623.59;4955663;28;20463;-55
2020/12/29 06:53:04;;;;;;;4.03;0.80;;;;;;;2.69;85.02;98625.22;4951173;28;20121;-56
2020/12/29 06:55:43;;;;;;;1.90;0.73;;;;;;;2.67;84.67;98632.97;4976110;28;20048;-55
2020/12/29 06:58:27;;;;;;;5.97;1.00;;;;;;;2.66;84.60;98647.75;4975685;28;20540;-56
2020/12/29 07:01:21;;;;;;;1.23;0.65;;;;;;;2.63;84.46;98651.16;4975585;28;20043;-54
2020/12/29 07:03:48;;;;;;;1.20;0.77;;;;;;;2.61;84.54;98655.38;4975307;28;20130;-57
2020/12/29 07:06:15;;;;;;;6.88;1.20;;;;;;;2.59;84.66;98668.59;4975948;28;20101;-52
2020/12/29 07:08:41;;;;;;;1.02;0.68;;;;;;;2.56;84.78;98675.53;4975913;28;20050;-56
2020/12/29 07:11:18;;;;;;;1.65;0.85;;;;;;;2.55;85.28;98675.88;4975311;28;20043;-51
2020/12/29 07:13:48;;;;;;;3.45;1.05;;;;;;;2.58;84.75;98683.38;4974529;28;20043;-54
2020/12/29 07:16:21;;;;;;;2.45;0.73;;;;;;;2.56;84.91;98691.13;4975848;28;20489;-52
2020/12/29 07:18:48;;;;;;;5.13;1.45;;;;;;;2.58;84.66;98692.38;4941233;28;20464;-55
2020/12/29 07:21:28;;;;;;;2.42;0.90;;;;;;;2.57;84.61;98707.16;4967995;28;20190;-55
2020/12/29 07:23:55;;;;;;;3.13;0.85;;;;;;;2.58;84.50;98710.69;4974380;28;20177;-56
2020/12/29 07:26:36;;;;;;;3.53;0.70;;;;;;;2.57;84.54;98718.09;4975770;28;20043;-58
2020/12/29 07:29:06;;;;;;;3.53;0.95;;;;;;;2.55;84.71;98728.56;4974976;28;20378;-57
2020/12/29 07:31:40;;;;;;;1.70;0.82;;;;;;;2.51;84.39;98733.13;4975482;28;20047;-53
2020/12/29 07:34:12;;;;;;;2.25;0.70;;;;;;;2.45;84.52;98726.28;4975108;28;20405;-54
2020/12/29 07:36:46;;;;;;;2.38;0.85;;;;;;;2.42;84.30;98729.69;4974935;28;20457;-55
2020/12/29 07:39:14;;;;;;;1.17;0.60;;;;;;;2.38;84.34;98742.44;4973493;28;20101;-58
2020/12/29 07:41:41;;;;;;;5.68;1.02;;;;;;;2.35;84.36;98746.66;4974609;28;21668;-58
2020/12/29 07:44:07;;;;;;;1.67;0.65;;;;;;;2.32;84.59;98752.00;4974902;28;20448;-56
2020/12/29 07:46:34;;;;;;;1.67;0.65;;;;;;;2.31;84.94;98761.31;4974367;28;20089;-55
2020/12/29 07:49:03;;;;;;;3.03;0.68;;;;;;;2.27;84.76;98760.41;4975140;28;20491;-54
2020/12/29 07:51:31;;;;;;;2.28;0.90;;;;;;;2.27;84.47;98757.69;4973870;28;20610;-58
2020/12/29 07:54:04;;;;;;;1.70;0.73;;;;;;;2.24;84.89;98767.34;4954722;29;20091;-55
2020/12/29 07:56:32;;;;;;;0.82;0.43;;;;;;;2.24;84.50;98769.25;4973145;28;20070;-56
2020/12/29 07:59:08;;;;;;;1.95;0.60;;;;;;;2.20;84.60;98780.06;4975034;28;20093;-58
2020/12/29 08:01:55;;;;;;;1.17;0.40;;;;;;;2.19;84.84;98775.75;4973824;28;20440;-58
2020/12/29 08:04:23;;;;;;;4.05;0.70;;;;;;;2.17;84.30;98782.69;4974600;28;20101;-57
2020/12/29 08:06:52;;;;;;;1.45;0.50;;;;;;;2.16;84.67;98792.00;4973796;28;20039;-60
2020/12/29 08:09:24;;;;;;;1.85;0.93;;;;;;;2.14;84.74;98794.28;4942294;28;20571;-56
2020/12/29 08:12:01;;;;;;;2.20;0.50;;;;;;;2.14;84.43;98797.81;4973772;28;20070;-58
2020/12/29 08:14:39;;;;;;;2.58;0.85;;;;;;;2.14;84.31;98807.91;4974674;28;20125;-55
2020/12/29 08:17:05;;;;;;;2.78;0.82;;;;;;;2.13;84.51;98818.03;4957219;28;20049;-58
2020/12/29 08:19:32;;;;;;;1.67;0.47;;;;;;;2.11;84.30;98816.78;4975371;28;20182;-57
2020/12/29 08:22:07;;;;;;;2.45;0.75;;;;;;;2.07;84.25;98824.81;4973244;28;20038;-57
2020/12/29 08:24:34;;;;;;;5.20;0.77;;;;;;;2.07;84.66;98824.81;4974224;28;20047;-59
2020/12/29 08:27:01;;;;;;;2.05;0.47;;;;;;;2.07;84.35;98833.00;4956643;28;20121;-56
2020/12/29 08:29:30;;;;;;;2.45;0.70;;;;;;;2.04;84.45;98835.63;4961018;28;20531;-57
2020/12/29 08:32:05;;;;;;;4.60;0.90;;;;;;;2.04;84.21;98836.41;4972304;28;20125;-58
2020/12/29 08:34:33;;;;;;;1.95;0.50;;;;;;;2.04;84.19;98843.81;4956973;28;20134;-57
2020/12/29 08:37:00;;;;;;;5.63;0.88;;;;;;;2.05;83.99;98850.84;4954060;28;20070;-58
2020/12/29 08:40:12;;;;;;;9.40;2.72;;;;;;;2.05;84.12;98861.78;4971394;28;20035;-58
2020/12/29 08:42:50;;;;;;;2.03;0.80;;;;;;;2.04;84.04;98865.66;4949589;28;20043;-56
2020/12/29 08:45:18;;;;;;;1.33;0.57;;;;;;;2.02;84.12;98870.63;4957080;28;20042;-58
2020/12/29 08:47:45;;;;;;;3.97;1.17;;;;;;;2.00;83.67;98875.63;4974195;28;20401;-57
2020/12/29 08:50:22;;;;;;;5.70;0.88;;;;;;;1.99;84.13;98887.66;4973711;28;20050;-56
2020/12/29 08:52:53;;;;;;;5.82;0.95;;;;;;;2.00;83.87;98892.00;4940676;28;20089;-57
2020/12/29 08:55:30;;;;;;;2.10;0.95;;;;;;;1.96;84.08;98893.81;4953536;28;20035;-57
2020/12/29 08:57:58;;;;;;;2.92;1.05;;;;;;;1.98;83.97;98894.28;4962416;28;20078;-58
2020/12/29 09:00:25;;;;;;;2.25;0.88;;;;;;;1.96;84.11;98905.50;4973629;28;20085;-59
2020/12/29 09:02:52;;;;;;;2.72;0.80;;;;;;;1.96;83.90;98918.38;4973428;28;20051;-54
2020/12/29 09:05:20;;;;;;;3.05;0.93;;;;;;;1.96;83.48;98940.22;4952755;28;20039;-56
2020/12/29 09:07:47;;;;;;;9.10;1.50;;;;;;;1.98;83.74;98948.84;4967044;28;20495;-55
2020/12/29 09:10:15;;;;;;;3.05;0.80;;;;;;;1.96;83.45;98956.59;4972688;28;20042;-54
2020/12/29 09:12:42;;;;;;;2.97;1.10;;;;;;;1.95;83.51;98950.31;4954783;28;20067;-55
2020/12/29 09:15:10;;;;;;;5.75;1.63;;;;;;;1.93;83.52;98968.97;4973514;28;20042;-53
2020/12/29 09:17:42;;;;;;;7.35;2.40;;;;;;;1.94;83.89;98961.56;4956434;28;20039;-55
2020/12/29 09:20:25;;;;;;;9.35;2.60;;;;;;;1.93;83.88;98977.16;4972189;28;20042;-55
2020/12/29 09:23:07;;;;;;;5.07;1.90;;;;;;;1.95;83.71;98982.25;4973249;28;20051;-53
2020/12/29 09:25:34;;;;;;;3.38;1.52;;;;;;;1.94;83.51;98981.47;4954597;28;20042;-55
2020/12/29 09:28:19;;;;;;;4.60;1.58;;;;;;;1.94;83.94;98986.91;4968245;28;20456;-58
2020/12/29 09:31:10;;;;;;;4.65;1.20;;;;;;;1.94;83.40;98983.38;4946297;28;20493;-56
2020/12/29 09:33:38;;;;;;;4.43;1.13;;;;;;;1.97;83.98;98991.72;4951013;28;20560;-56
2020/12/29 09:36:07;;;;;;;7.97;2.75;;;;;;;1.99;83.84;98999.56;4970157;28;20129;-56
2020/12/29 09:38:37;;;;;;;5.95;2.80;;;;;;;1.99;83.98;99000.38;4947530;28;20519;-57
2020/12/29 09:41:04;;;;;;;6.75;2.58;;;;;;;2.03;83.67;99005.97;4971349;28;20070;-57
2020/12/29 09:43:30;;;;;;;11.43;5.30;;;;;;;2.04;83.53;99007.59;4971772;28;20043;-55
2020/12/29 09:45:57;;;;;;;6.97;2.97;;;;;;;2.05;83.72;99025.53;4971116;28;20047;-54
2020/12/29 09:48:25;;;;;;;5.47;2.85;;;;;;;2.06;83.34;99027.94;4973894;28;20113;-56
2020/12/29 09:50:51;;;;;;;6.43;2.20;;;;;;;2.10;83.50;99039.00;4965689;28;20051;-54
2020/12/29 09:53:18;;;;;;;3.45;1.70;;;;;;;2.09;83.89;99038.19;4975020;28;20051;-55
2020/12/29 09:55:44;;;;;;;2.60;1.40;;;;;;;2.13;83.31;99044.59;4975541;28;20125;-54
2020/12/29 09:58:10;;;;;;;4.57;1.02;;;;;;;2.15;83.72;99038.78;4975546;28;20042;-57
2020/12/29 10:00:37;;;;;;;6.28;1.83;;;;;;;2.19;83.74;99048.75;4972902;28;20482;-57
2020/12/29 10:03:03;;;;;;;4.93;1.50;;;;;;;2.18;83.25;99047.13;4975665;28;20117;-56
2020/12/29 10:05:31;;;;;;;4.95;1.30;;;;;;;2.20;83.31;99052.25;4973595;28;20267;-58
2020/12/29 10:07:57;;;;;;;5.90;1.30;;;;;;;2.23;83.52;99070.69;4954238;28;20138;-55
2020/12/29 10:10:24;;;;;;;3.35;1.67;;;;;;;2.26;83.38;99078.22;4974586;28;20042;-55
2020/12/29 10:12:50;;;;;;;5.43;1.20;;;;;;;2.28;83.39;99086.88;4975091;28;20047;-56
2020/12/29 10:15:16;;;;;;;4.45;1.05;;;;;;;2.31;83.53;99088.97;4973498;28;20043;-57
2020/12/29 10:17:43;;;;;;;2.88;0.90;;;;;;;2.33;83.70;99092.19;4975052;28;20074;-54
2020/12/29 10:20:09;;;;;;;5.55;1.02;;;;;;;2.35;83.33;99095.38;4958250;28;20071;-56
2020/12/29 10:22:35;;;;;;;5.63;1.25;;;;;;;2.37;83.58;99112.22;4974471;28;20042;-56
2020/12/29 10:25:02;;;;;;;4.53;1.00;;;;;;;2.41;83.69;99111.22;4974875;28;20054;-56
2020/12/29 10:27:28;;;;;;;6.95;1.67;;;;;;;2.42;83.35;99117.47;4974915;28;20046;-56
2020/12/29 10:29:54;;;;;;;7.55;1.85;;;;;;;2.43;83.23;99121.84;4973540;28;20042;-57
2020/12/29 10:32:21;;;;;;;6.68;1.30;;;;;;;2.46;83.12;99115.72;4975146;28;20447;-55
2020/12/29 10:34:50;;;;;;;5.88;1.50;;;;;;;2.47;83.74;99126.28;4954619;28;20430;-58
2020/12/29 10:37:17;;;;;;;4.20;0.90;;;;;;;2.50;83.35;99116.63;4964316;28;20046;-57
2020/12/29 10:39:43;;;;;;;4.90;1.17;;;;;;;2.55;83.40;99129.28;4973741;28;20070;-53
2020/12/29 10:42:09;;;;;;;5.10;1.27;;;;;;;2.58;83.52;99137.63;4974872;28;20070;-51
2020/12/29 10:44:36;;;;;;;2.00;0.60;;;;;;;2.60;83.14;99135.34;4957537;28;20074;-52
2020/12/29 10:47:03;;;;;;;6.43;1.13;;;;;;;2.64;83.21;99141.78;4974872;28;20086;-57
2020/12/29 10:49:29;;;;;;;3.03;0.70;;;;;;;2.67;83.11;99146.59;4974335;28;20404;-57
2020/12/29 10:51:56;;;;;;;4.78;1.20;;;;;;;2.70;82.91;99156.81;4953166;28;20102;-55
2020/12/29 10:54:23;;;;;;;2.63;1.52;;;;;;;2.74;83.17;99159.69;4955396;29;20571;-56
2020/12/29 10:56:50;;;;;;;3.40;0.73;;;;;;;2.77;82.87;99157.13;4962158;28;20065;-56
2020/12/29 10:59:16;;;;;;;3.40;1.70;;;;;;;2.81;82.75;99157.22;4973598;28;20070;-58
2020/12/29 11:01:42;;;;;;;2.13;1.08;;;;;;;2.84;83.02;99157.38;4973808;28;20432;-57
2020/12/29 11:04:11;;;;;;;2.47;0.85;;;;;;;2.88;nan;99158.31;4974802;28;20515;-57
2020/12/29 11:06:41;;;;;;;1.67;0.90;;;;;;;2.92;82.76;99161.97;4972258;28;20043;-55
2020/12/29 11:09:08;;;;;;;2.00;0.65;;;;;;;2.95;82.64;99157.78;4974781;28;20129;-58
2020/12/29 11:11:34;;;;;;;7.80;1.05;;;;;;;2.97;82.52;99150.84;4974317;28;20043;-56
2020/12/29 11:14:01;;;;;;;3.55;1.23;;;;;;;3.01;83.01;99157.25;4974061;28;20134;-56
2020/12/29 11:16:29;;;;;;;4.22;1.10;;;;;;;3.05;82.72;99160.09;4974437;28;20043;-58
2020/12/29 11:18:55;;;;;;;5.57;1.38;;;;;;;3.08;82.74;99167.63;4957121;28;20129;-53
2020/12/29 11:21:21;;;;;;;4.72;1.00;;;;;;;3.10;82.59;99170.06;4973302;28;20071;-58
2020/12/29 11:23:48;;;;;;;7.55;1.17;;;;;;;3.13;82.49;99163.91;4974688;28;20074;-55
2020/12/29 11:26:15;;;;;;;3.95;1.33;;;;;;;3.15;82.77;99173.38;4973705;28;20074;-57
2020/12/29 11:28:42;;;;;;;4.00;1.02;;;;;;;3.18;82.73;99177.41;4975077;28;20046;-57
2020/12/29 11:31:13;;;;;;;1.92;1.30;;;;;;;3.20;82.78;99175.13;4987695;28;20065;-56
2020/12/29 11:33:40;;;;;;;3.15;0.90;;;;;;;3.22;82.54;99175.56;4990632;28;20042;-55
2020/12/29 11:36:08;;;;;;;3.10;1.08;;;;;;;3.25;82.70;99185.84;4973309;28;20043;-56
2020/12/29 11:38:37;;;;;;;4.80;2.70;;;;;;;3.27;82.55;99189.03;4957598;28;20078;-56
2020/12/29 11:41:03;;;;;;;6.75;1.38;;;;;;;3.29;82.56;99200.44;4973706;28;20515;-55
2020/12/29 11:43:29;;;;;;;4.57;1.58;;;;;;;3.32;82.94;99205.25;4972974;28;20081;-57
2020/12/29 11:45:56;;;;;;;5.03;1.83;;;;;;;3.33;82.42;99202.19;4974058;28;20066;-57
2020/12/29 11:48:23;;;;;;;3.85;1.60;;;;;;;3.37;82.87;99202.31;4972503;28;20469;-55
2020/12/29 11:50:51;;;;;;;8.98;1.73;;;;;;;3.39;82.60;99208.25;4973502;28;20046;-55